LSZC Airport Information

Runway Information
Runway 07L Length 6561 ft width 130 ft
Elevation 1475 ft Threshold 200 ft Heading 62
Runway 25R Length 6561 ft Width 130 ft
Elevation 1435 ft Threshold 200 ft Heading 242
Runway 07R Length 4921 ft width 130 ft
Elevation 1475 ft Threshold 0 ft Heading 62
Runway 25L Length 4921 ft Width 130 ft
Elevation 1445 ft Threshold 0 ft Heading 242
Airport Frequencies
Type Air to Air Name INFO Frequency 134.125 MHZ
Type ARR ALPNAC Name Alpnach To Frequency 128.475 MHZ
Type ARR EMMEN Name Emmen Towe Frequency 120.425 MHZ
Type FIS Name Zurich Inf Frequency 124.7 MHZ
Type GCA Name ARR/DEP Frequency 140.65 MHZ
Type TWR Name TWR Frequency 119.625 MHZ
Airport Navaids
Airport Weather Information & NOTAM
ADDS - METARS form results

(0148 UTC 19 January 2018)
 
METAR text: LSZC 190120Z AUTO 24024G37KT 210V270 9999 FEW090 SCT130 BKN150 12/M02 Q1007
Conditions at: LSZC (BUOCHS , CH) observed 0120 UTC 19 January 2018
Temperature: 12.0°C (54°F)
Dewpoint: -2.0°C (28°F) [RH = 38%]
Pressure (altimeter): 29.73 inches Hg (1007.0 mb)
Winds: from the WSW (240 degrees) at 28 MPH (24 knots; 12.5 m/s)
gusting to 43 MPH (37 knots; 19.2 m/s)
Visibility: 6 or more miles (10+ km)
Ceiling: 15000 feet AGL
Clouds: few clouds at 9000 feet AGL
scattered clouds at 13000 feet AGL
broken clouds at 15000 feet AGL
Weather: no significant weather observed at this time

METAR text: LSZC 190050Z AUTO 25018KT 9999 FEW070 OVC110 12/00 Q1007
Conditions at: LSZC (BUOCHS , CH) observed 0050 UTC 19 January 2018
Temperature: 12.0°C (54°F)
Dewpoint: 0.0°C (32°F) [RH = 44%]
Pressure (altimeter): 29.73 inches Hg (1007.0 mb)
Winds: from the WSW (250 degrees) at 21 MPH (18 knots; 9.4 m/s)
Visibility: 6 or more miles (10+ km)
Ceiling: 11000 feet AGL
Clouds: few clouds at 7000 feet AGL
overcast cloud deck at 11000 feet AGL
Weather: no significant weather observed at this time